sensor_id;sensor_type;location;lat;lon;timestamp;P1;durP1;ratioP1;P2;durP2;ratioP2
15496;SDS011;7850;52.204;5.942;2023-03-14T20:34:48;0.17;;;0.17;;
15496;SDS011;7850;52.204;5.942;2023-03-14T20:35:52;0.20;;;0.20;;
15496;SDS011;7850;52.204;5.942;2023-03-14T20:36:48;0.20;;;0.20;;
15496;SDS011;7850;52.204;5.942;2023-03-14T20:37:49;0.20;;;0.20;;
15496;SDS011;7850;52.204;5.942;2023-03-14T20:38:48;0.20;;;0.20;;
15496;SDS011;7850;52.204;5.942;2023-03-14T20:39:49;0.20;;;0.20;;
15496;SDS011;7850;52.204;5.942;2023-03-14T20:40:49;0.42;;;0.42;;
15496;SDS011;7850;52.204;5.942;2023-03-14T20:41:49;0.45;;;0.45;;
15496;SDS011;7850;52.204;5.942;2023-03-14T20:42:49;0.41;;;0.41;;
15496;SDS011;7850;52.204;5.942;2023-03-14T20:43:49;0.50;;;0.50;;
15496;SDS011;7850;52.204;5.942;2023-03-14T20:44:49;0.30;;;0.30;;
15496;SDS011;7850;52.204;5.942;2023-03-14T20:45:50;0.40;;;0.40;;
15496;SDS011;7850;52.204;5.942;2023-03-14T20:46:49;0.20;;;0.20;;
15496;SDS011;7850;52.204;5.942;2023-03-14T20:47:49;0.20;;;0.20;;
15496;SDS011;7850;52.204;5.942;2023-03-14T20:48:49;0.28;;;0.28;;
15496;SDS011;7850;52.204;5.942;2023-03-14T20:49:49;0.20;;;0.20;;
15496;SDS011;7850;52.204;5.942;2023-03-14T20:50:50;0.20;;;0.20;;
15496;SDS011;7850;52.204;5.942;2023-03-14T20:51:49;0.35;;;0.35;;
15496;SDS011;7850;52.204;5.942;2023-03-14T20:52:49;0.35;;;0.35;;
15496;SDS011;7850;52.204;5.942;2023-03-14T20:53:49;0.43;;;0.43;;
15496;SDS011;7850;52.204;5.942;2023-03-14T20:54:50;0.20;;;0.20;;
15496;SDS011;7850;52.204;5.942;2023-03-14T20:55:50;0.44;;;0.44;;
15496;SDS011;7850;52.204;5.942;2023-03-14T20:56:50;0.25;;;0.25;;
15496;SDS011;7850;52.204;5.942;2023-03-14T20:57:50;0.34;;;0.34;;
15496;SDS011;7850;52.204;5.942;2023-03-14T20:58:50;0.20;;;0.20;;
15496;SDS011;7850;52.204;5.942;2023-03-14T20:59:50;0.25;;;0.25;;
15496;SDS011;7850;52.204;5.942;2023-03-14T21:00:50;0.19;;;0.19;;
15496;SDS011;7850;52.204;5.942;2023-03-14T21:01:50;0.43;;;0.43;;
15496;SDS011;7850;52.204;5.942;2023-03-14T21:02:50;0.46;;;0.46;;
15496;SDS011;7850;52.204;5.942;2023-03-14T21:03:50;0.33;;;0.33;;
15496;SDS011;7850;52.204;5.942;2023-03-14T21:04:50;0.48;;;0.48;;
15496;SDS011;7850;52.204;5.942;2023-03-14T21:05:50;0.20;;;0.20;;
15496;SDS011;7850;52.204;5.942;2023-03-14T21:06:51;0.21;;;0.21;;
15496;SDS011;7850;52.204;5.942;2023-03-14T21:07:50;0.20;;;0.20;;
15496;SDS011;7850;52.204;5.942;2023-03-14T21:08:50;0.34;;;0.34;;
15496;SDS011;7850;52.204;5.942;2023-03-14T21:09:51;0.20;;;0.20;;
15496;SDS011;7850;52.204;5.942;2023-03-14T21:10:51;0.22;;;0.22;;
15496;SDS011;7850;52.204;5.942;2023-03-14T21:11:51;0.21;;;0.21;;
15496;SDS011;7850;52.204;5.942;2023-03-14T21:12:51;0.34;;;0.34;;
15496;SDS011;7850;52.204;5.942;2023-03-14T21:13:51;0.20;;;0.20;;
15496;SDS011;7850;52.204;5.942;2023-03-14T21:14:51;0.20;;;0.20;;
15496;SDS011;7850;52.204;5.942;2023-03-14T21:15:51;0.17;;;0.17;;
15496;SDS011;7850;52.204;5.942;2023-03-14T21:16:51;0.28;;;0.28;;
15496;SDS011;7850;52.204;5.942;2023-03-14T21:17:51;0.19;;;0.19;;
15496;SDS011;7850;52.204;5.942;2023-03-14T21:18:51;0.20;;;0.20;;
15496;SDS011;7850;52.204;5.942;2023-03-14T21:19:51;0.20;;;0.20;;
15496;SDS011;7850;52.204;5.942;2023-03-14T21:20:52;0.20;;;0.20;;
15496;SDS011;7850;52.204;5.942;2023-03-14T21:21:51;0.43;;;0.43;;
15496;SDS011;7850;52.204;5.942;2023-03-14T21:22:52;0.33;;;0.33;;
15496;SDS011;7850;52.204;5.942;2023-03-14T21:23:52;0.20;;;0.20;;
15496;SDS011;7850;52.204;5.942;2023-03-14T21:24:52;0.25;;;0.25;;
15496;SDS011;7850;52.204;5.942;2023-03-14T21:25:52;0.29;;;0.29;;
15496;SDS011;7850;52.204;5.942;2023-03-14T21:26:52;0.30;;;0.30;;
15496;SDS011;7850;52.204;5.942;2023-03-14T21:27:52;0.57;;;0.57;;
15496;SDS011;7850;52.204;5.942;2023-03-14T21:28:52;0.22;;;0.22;;
15496;SDS011;7850;52.204;5.942;2023-03-14T21:29:52;0.20;;;0.20;;
15496;SDS011;7850;52.204;5.942;2023-03-14T21:30:52;0.20;;;0.20;;
15496;SDS011;7850;52.204;5.942;2023-03-14T21:31:52;0.20;;;0.20;;
15496;SDS011;7850;52.204;5.942;2023-03-14T21:32:52;0.20;;;0.20;;
15496;SDS011;7850;52.204;5.942;2023-03-14T21:33:52;0.29;;;0.29;;
15496;SDS011;7850;52.204;5.942;2023-03-14T21:34:52;0.20;;;0.20;;
15496;SDS011;7850;52.204;5.942;2023-03-14T21:35:52;0.25;;;0.25;;
15496;SDS011;7850;52.204;5.942;2023-03-14T21:36:52;0.30;;;0.30;;
15496;SDS011;7850;52.204;5.942;2023-03-14T21:37:53;0.24;;;0.24;;
15496;SDS011;7850;52.204;5.942;2023-03-14T21:38:53;0.26;;;0.26;;
15496;SDS011;7850;52.204;5.942;2023-03-14T21:39:53;0.39;;;0.39;;
15496;SDS011;7850;52.204;5.942;2023-03-14T21:40:53;0.20;;;0.20;;
15496;SDS011;7850;52.204;5.942;2023-03-14T21:41:53;0.43;;;0.43;;
15496;SDS011;7850;52.204;5.942;2023-03-14T21:42:53;0.31;;;0.31;;
15496;SDS011;7850;52.204;5.942;2023-03-14T21:43:53;0.40;;;0.40;;
15496;SDS011;7850;52.204;5.942;2023-03-14T21:44:53;0.31;;;0.31;;
15496;SDS011;7850;52.204;5.942;2023-03-14T21:45:53;0.46;;;0.46;;
15496;SDS011;7850;52.204;5.942;2023-03-14T21:46:53;0.35;;;0.35;;
15496;SDS011;7850;52.204;5.942;2023-03-14T21:47:54;0.32;;;0.32;;
15496;SDS011;7850;52.204;5.942;2023-03-14T21:48:53;0.35;;;0.35;;
15496;SDS011;7850;52.204;5.942;2023-03-14T21:49:53;0.20;;;0.20;;
15496;SDS011;7850;52.204;5.942;2023-03-14T21:50:53;0.40;;;0.40;;
15496;SDS011;7850;52.204;5.942;2023-03-14T21:51:53;0.25;;;0.25;;
15496;SDS011;7850;52.204;5.942;2023-03-14T21:52:54;0.50;;;0.50;;
15496;SDS011;7850;52.204;5.942;2023-03-14T21:53:54;0.37;;;0.37;;
15496;SDS011;7850;52.204;5.942;2023-03-14T21:54:54;0.20;;;0.20;;
15496;SDS011;7850;52.204;5.942;2023-03-14T21:55:54;0.50;;;0.50;;
15496;SDS011;7850;52.204;5.942;2023-03-14T21:56:54;0.39;;;0.39;;
15496;SDS011;7850;52.204;5.942;2023-03-14T21:57:54;0.50;;;0.50;;
15496;SDS011;7850;52.204;5.942;2023-03-14T21:58:54;0.49;;;0.49;;
15496;SDS011;7850;52.204;5.942;2023-03-14T21:59:54;0.20;;;0.20;;
15496;SDS011;7850;52.204;5.942;2023-03-14T22:00:59;0.48;;;0.48;;
15496;SDS011;7850;52.204;5.942;2023-03-14T22:01:54;0.27;;;0.27;;
15496;SDS011;7850;52.204;5.942;2023-03-14T22:02:54;0.20;;;0.20;;
15496;SDS011;7850;52.204;5.942;2023-03-14T22:03:54;0.48;;;0.48;;
15496;SDS011;7850;52.204;5.942;2023-03-14T22:04:54;0.38;;;0.38;;
15496;SDS011;7850;52.204;5.942;2023-03-14T22:05:54;0.50;;;0.50;;
15496;SDS011;7850;52.204;5.942;2023-03-14T22:06:54;0.60;;;0.60;;
15496;SDS011;7850;52.204;5.942;2023-03-14T22:07:55;0.23;;;0.23;;
15496;SDS011;7850;52.204;5.942;2023-03-14T22:08:55;0.52;;;0.52;;
15496;SDS011;7850;52.204;5.942;2023-03-14T22:09:55;0.50;;;0.50;;
15496;SDS011;7850;52.204;5.942;2023-03-14T22:10:55;0.25;;;0.25;;
15496;SDS011;7850;52.204;5.942;2023-03-14T22:11:55;0.20;;;0.20;;
15496;SDS011;7850;52.204;5.942;2023-03-14T22:12:55;0.26;;;0.26;;
15496;SDS011;7850;52.204;5.942;2023-03-14T22:13:55;0.30;;;0.30;;
15496;SDS011;7850;52.204;5.942;2023-03-14T22:14:55;0.30;;;0.30;;
15496;SDS011;7850;52.204;5.942;2023-03-14T22:15:55;0.29;;;0.29;;
15496;SDS011;7850;52.204;5.942;2023-03-14T22:16:55;0.30;;;0.30;;
15496;SDS011;7850;52.204;5.942;2023-03-14T22:17:55;1.78;;;1.74;;
15496;SDS011;7850;52.204;5.942;2023-03-14T22:18:55;4.23;;;4.09;;
15496;SDS011;7850;52.204;5.942;2023-03-14T22:19:55;3.85;;;3.75;;
15496;SDS011;7850;52.204;5.942;2023-03-14T22:20:55;3.88;;;3.78;;
15496;SDS011;7850;52.204;5.942;2023-03-14T22:21:55;3.98;;;3.87;;
15496;SDS011;7850;52.204;5.942;2023-03-14T22:22:56;4.14;;;3.99;;
15496;SDS011;7850;52.204;5.942;2023-03-14T22:23:56;4.37;;;4.22;;
15496;SDS011;7850;52.204;5.942;2023-03-14T22:24:56;4.64;;;4.45;;
15496;SDS011;7850;52.204;5.942;2023-03-14T22:25:56;0.36;;;0.36;;
15496;SDS011;7850;52.204;5.942;2023-03-14T22:26:56;0.25;;;0.25;;
15496;SDS011;7850;52.204;5.942;2023-03-14T22:27:56;0.30;;;0.30;;
15496;SDS011;7850;52.204;5.942;2023-03-14T22:28:56;0.30;;;0.30;;
15496;SDS011;7850;52.204;5.942;2023-03-14T22:29:56;0.30;;;0.30;;
15496;SDS011;7850;52.204;5.942;2023-03-14T22:30:56;0.30;;;0.30;;
15496;SDS011;7850;52.204;5.942;2023-03-14T22:31:56;0.30;;;0.30;;
15496;SDS011;7850;52.204;5.942;2023-03-14T22:32:56;0.30;;;0.30;;
15496;SDS011;7850;52.204;5.942;2023-03-14T22:33:56;0.30;;;0.30;;
15496;SDS011;7850;52.204;5.942;2023-03-14T22:34:56;0.30;;;0.30;;
15496;SDS011;7850;52.204;5.942;2023-03-14T22:35:56;0.30;;;0.30;;
15496;SDS011;7850;52.204;5.942;2023-03-14T22:36:57;0.25;;;0.25;;
15496;SDS011;7850;52.204;5.942;2023-03-14T22:37:57;0.28;;;0.28;;
15496;SDS011;7850;52.204;5.942;2023-03-14T22:38:57;0.41;;;0.41;;
15496;SDS011;7850;52.204;5.942;2023-03-14T22:39:57;0.32;;;0.32;;
15496;SDS011;7850;52.204;5.942;2023-03-14T22:40:58;0.29;;;0.29;;
15496;SDS011;7850;52.204;5.942;2023-03-14T22:41:57;0.30;;;0.30;;
15496;SDS011;7850;52.204;5.942;2023-03-14T22:42:57;0.30;;;0.30;;
15496;SDS011;7850;52.204;5.942;2023-03-14T22:43:57;0.23;;;0.23;;
15496;SDS011;7850;52.204;5.942;2023-03-14T22:44:57;0.36;;;0.36;;
15496;SDS011;7850;52.204;5.942;2023-03-14T22:45:57;0.71;;;0.71;;
15496;SDS011;7850;52.204;5.942;2023-03-14T22:46:57;0.20;;;0.20;;
15496;SDS011;7850;52.204;5.942;2023-03-14T22:47:57;0.26;;;0.26;;
15496;SDS011;7850;52.204;5.942;2023-03-14T22:48:58;0.20;;;0.20;;
15496;SDS011;7850;52.204;5.942;2023-03-14T22:49:57;0.20;;;0.20;;
15496;SDS011;7850;52.204;5.942;2023-03-14T22:50:58;0.20;;;0.20;;
15496;SDS011;7850;52.204;5.942;2023-03-14T22:51:58;0.20;;;0.20;;
15496;SDS011;7850;52.204;5.942;2023-03-14T22:52:58;0.22;;;0.22;;
15496;SDS011;7850;52.204;5.942;2023-03-14T22:53:58;0.30;;;0.30;;
15496;SDS011;7850;52.204;5.942;2023-03-14T22:54:58;0.20;;;0.20;;
15496;SDS011;7850;52.204;5.942;2023-03-14T22:55:58;0.20;;;0.20;;
15496;SDS011;7850;52.204;5.942;2023-03-14T22:56:58;0.20;;;0.20;;
15496;SDS011;7850;52.204;5.942;2023-03-14T22:57:58;0.20;;;0.20;;
15496;SDS011;7850;52.204;5.942;2023-03-14T22:58:58;0.21;;;0.21;;
15496;SDS011;7850;52.204;5.942;2023-03-14T22:59:58;0.20;;;0.20;;
15496;SDS011;7850;52.204;5.942;2023-03-14T23:00:58;0.20;;;0.20;;
15496;SDS011;7850;52.204;5.942;2023-03-14T23:01:58;0.20;;;0.20;;
15496;SDS011;7850;52.204;5.942;2023-03-14T23:02:58;0.20;;;0.20;;
15496;SDS011;7850;52.204;5.942;2023-03-14T23:03:58;0.20;;;0.20;;
15496;SDS011;7850;52.204;5.942;2023-03-14T23:04:58;0.20;;;0.20;;
15496;SDS011;7850;52.204;5.942;2023-03-14T23:05:58;0.20;;;0.20;;
15496;SDS011;7850;52.204;5.942;2023-03-14T23:06:58;0.30;;;0.30;;
15496;SDS011;7850;52.204;5.942;2023-03-14T23:07:59;0.20;;;0.20;;
15496;SDS011;7850;52.204;5.942;2023-03-14T23:08:59;0.20;;;0.20;;
15496;SDS011;7850;52.204;5.942;2023-03-14T23:09:59;0.24;;;0.24;;
15496;SDS011;7850;52.204;5.942;2023-03-14T23:10:59;0.20;;;0.20;;
15496;SDS011;7850;52.204;5.942;2023-03-14T23:11:59;0.20;;;0.20;;
15496;SDS011;7850;52.204;5.942;2023-03-14T23:12:59;0.24;;;0.24;;
15496;SDS011;7850;52.204;5.942;2023-03-14T23:13:59;0.20;;;0.20;;
15496;SDS011;7850;52.204;5.942;2023-03-14T23:14:59;0.20;;;0.20;;
15496;SDS011;7850;52.204;5.942;2023-03-14T23:15:59;0.20;;;0.20;;
15496;SDS011;7850;52.204;5.942;2023-03-14T23:16:59;0.24;;;0.24;;
15496;SDS011;7850;52.204;5.942;2023-03-14T23:17:59;0.20;;;0.20;;
15496;SDS011;7850;52.204;5.942;2023-03-14T23:18:59;0.20;;;0.20;;
15496;SDS011;7850;52.204;5.942;2023-03-14T23:19:59;0.20;;;0.20;;
15496;SDS011;7850;52.204;5.942;2023-03-14T23:21:08;0.20;;;0.20;;
15496;SDS011;7850;52.204;5.942;2023-03-14T23:22:00;0.20;;;0.20;;
15496;SDS011;7850;52.204;5.942;2023-03-14T23:23:00;0.20;;;0.20;;
15496;SDS011;7850;52.204;5.942;2023-03-14T23:24:00;0.20;;;0.20;;
15496;SDS011;7850;52.204;5.942;2023-03-14T23:25:00;0.20;;;0.20;;
15496;SDS011;7850;52.204;5.942;2023-03-14T23:26:00;0.20;;;0.20;;
15496;SDS011;7850;52.204;5.942;2023-03-14T23:27:00;0.26;;;0.26;;
15496;SDS011;7850;52.204;5.942;2023-03-14T23:28:00;0.34;;;0.34;;
15496;SDS011;7850;52.204;5.942;2023-03-14T23:29:00;0.43;;;0.43;;
15496;SDS011;7850;52.204;5.942;2023-03-14T23:30:00;0.40;;;0.40;;
15496;SDS011;7850;52.204;5.942;2023-03-14T23:31:00;0.20;;;0.20;;
15496;SDS011;7850;52.204;5.942;2023-03-14T23:32:00;0.20;;;0.20;;
15496;SDS011;7850;52.204;5.942;2023-03-14T23:33:00;0.21;;;0.21;;
15496;SDS011;7850;52.204;5.942;2023-03-14T23:34:00;0.20;;;0.20;;
15496;SDS011;7850;52.204;5.942;2023-03-14T23:35:00;0.20;;;0.20;;
15496;SDS011;7850;52.204;5.942;2023-03-14T23:36:01;0.20;;;0.20;;
15496;SDS011;7850;52.204;5.942;2023-03-14T23:37:01;0.20;;;0.20;;
15496;SDS011;7850;52.204;5.942;2023-03-14T23:38:01;0.20;;;0.20;;
15496;SDS011;7850;52.204;5.942;2023-03-14T23:39:01;0.20;;;0.20;;
15496;SDS011;7850;52.204;5.942;2023-03-14T23:40:01;0.20;;;0.20;;
15496;SDS011;7850;52.204;5.942;2023-03-14T23:41:01;0.20;;;0.20;;
15496;SDS011;7850;52.204;5.942;2023-03-14T23:42:01;0.20;;;0.20;;
15496;SDS011;7850;52.204;5.942;2023-03-14T23:43:01;0.20;;;0.20;;
15496;SDS011;7850;52.204;5.942;2023-03-14T23:44:02;0.20;;;0.20;;
15496;SDS011;7850;52.204;5.942;2023-03-14T23:45:01;0.29;;;0.29;;
15496;SDS011;7850;52.204;5.942;2023-03-14T23:46:01;0.39;;;0.39;;
15496;SDS011;7850;52.204;5.942;2023-03-14T23:47:01;0.20;;;0.20;;
15496;SDS011;7850;52.204;5.942;2023-03-14T23:48:01;0.20;;;0.20;;
15496;SDS011;7850;52.204;5.942;2023-03-14T23:49:01;0.20;;;0.20;;
15496;SDS011;7850;52.204;5.942;2023-03-14T23:50:01;0.20;;;0.20;;
15496;SDS011;7850;52.204;5.942;2023-03-14T23:51:02;0.20;;;0.20;;
15496;SDS011;7850;52.204;5.942;2023-03-14T23:52:01;0.20;;;0.20;;
15496;SDS011;7850;52.204;5.942;2023-03-14T23:53:02;0.20;;;0.20;;
15496;SDS011;7850;52.204;5.942;2023-03-14T23:54:02;0.20;;;0.20;;
15496;SDS011;7850;52.204;5.942;2023-03-14T23:55:02;0.20;;;0.20;;
15496;SDS011;7850;52.204;5.942;2023-03-14T23:56:02;0.20;;;0.20;;
15496;SDS011;7850;52.204;5.942;2023-03-14T23:57:02;0.20;;;0.20;;
15496;SDS011;7850;52.204;5.942;2023-03-14T23:58:02;0.20;;;0.20;;
15496;SDS011;7850;52.204;5.942;2023-03-14T23:59:02;0.20;;;0.20;;
